Time;durP1;ratioP1;P1;durP2;ratioP2;P2;SDS_P1;SDS_P2;PMS_P1;PMS_P2;Temp;Humidity;BMP_temperature;BMP_pressure;BME280_temperature;BME280_humidity;BME280_pressure;Samples;Min_cycle;Max_cycle;Signal;HPM_P1;HPM_P2
2021/09/16 00:03:30;;;;;;;5.60;2.15;;;21.20;66.80;;;;;;20747378;28;20064;-60
2021/09/16 00:13:31;;;;;;;6.75;1.92;;;21.20;66.90;;;;;;20746319;28;20041;-60
2021/09/16 00:23:32;;;;;;;6.28;2.40;;;21.10;67.00;;;;;;20745199;28;20044;-61
2021/09/16 00:33:32;;;;;;;5.55;1.90;;;21.10;67.00;;;;;;20744744;28;20042;-60
2021/09/16 00:43:33;;;;;;;6.03;1.77;;;21.10;67.00;;;;;;20744800;28;20481;-61
2021/09/16 00:53:33;;;;;;;8.88;1.83;;;21.10;67.10;;;;;;20743391;28;20030;-61
2021/09/16 01:03:34;;;;;;;6.13;1.30;;;21.10;67.00;;;;;;20742306;28;20025;-59
2021/09/16 01:13:35;;;;;;;5.55;1.50;;;21.10;67.10;;;;;;20742203;28;20030;-61
2021/09/16 01:23:35;;;;;;;3.13;1.40;;;21.10;67.10;;;;;;20740247;28;20038;-60
2021/09/16 01:33:36;;;;;;;4.53;1.73;;;21.10;67.20;;;;;;20740137;28;20815;-61
2021/09/16 01:43:37;;;;;;;5.63;1.50;;;21.10;67.20;;;;;;20738238;28;20022;-61
2021/09/16 01:53:37;;;;;;;4.35;1.60;;;21.10;67.20;;;;;;20738997;28;20034;-61
2021/09/16 02:03:38;;;;;;;5.40;1.40;;;21.10;67.10;;;;;;20738208;28;20018;-60
2021/09/16 02:13:38;;;;;;;5.53;1.58;;;21.10;67.10;;;;;;20738452;28;20045;-61
2021/09/16 02:23:39;;;;;;;3.70;1.38;;;21.10;67.10;;;;;;20737234;28;20033;-58
2021/09/16 02:33:39;;;;;;;3.10;1.48;;;21.00;67.10;;;;;;20736866;28;20041;-58
2021/09/16 02:43:40;;;;;;;5.72;1.88;;;21.00;67.20;;;;;;20737564;28;20041;-60
2021/09/16 02:53:40;;;;;;;1.92;0.80;;;21.10;67.10;;;;;;20751141;28;20038;-58
2021/09/16 03:03:41;;;;;;;3.38;1.17;;;21.00;67.20;;;;;;20751636;28;20026;-58
2021/09/16 03:13:41;;;;;;;3.13;1.13;;;21.00;67.10;;;;;;20751153;28;20038;-58
2021/09/16 03:23:42;;;;;;;8.25;1.13;;;21.00;67.80;;;;;;20750605;28;20620;-61
2021/09/16 03:33:42;;;;;;;6.27;1.73;;;21.00;67.40;;;;;;20749563;28;20029;-61
2021/09/16 03:43:43;;;;;;;9.55;2.00;;;21.00;67.40;;;;;;20748826;28;20478;-61
2021/09/16 03:53:43;;;;;;;2.90;1.20;;;21.00;67.40;;;;;;20748357;28;20088;-60
2021/09/16 04:03:44;;;;;;;2.78;0.75;;;21.00;67.50;;;;;;20747086;28;20084;-60
2021/09/16 04:13:44;;;;;;;5.40;1.75;;;20.90;67.30;;;;;;20746962;28;20037;-61
2021/09/16 04:23:45;;;;;;;6.05;1.45;;;20.90;67.30;;;;;;20746236;28;20446;-59
2021/09/16 04:33:46;;;;;;;1.85;0.80;;;20.90;67.30;;;;;;20744666;28;20022;-59
2021/09/16 04:43:46;;;;;;;2.63;0.70;;;20.90;67.30;;;;;;20744111;28;20026;-59
2021/09/16 04:53:47;;;;;;;4.87;1.23;;;20.90;67.30;;;;;;20741651;28;20575;-62
2021/09/16 05:03:47;;;;;;;2.22;0.95;;;20.90;67.40;;;;;;20734989;28;20116;-59
2021/09/16 05:13:48;;;;;;;5.70;1.00;;;20.90;67.60;;;;;;20726200;28;20061;-59
2021/09/16 05:23:48;;;;;;;13.30;2.53;;;21.10;65.00;;;;;;20739790;28;20644;-60
2021/09/16 05:33:49;;;;;;;19.83;4.63;;;21.10;64.20;;;;;;20740375;28;20104;-62
2021/09/16 05:43:50;;;;;;;16.33;2.92;;;21.20;64.80;;;;;;20696594;28;20500;-59
2021/09/16 05:53:51;;;;;;;19.50;3.50;;;21.20;63.90;;;;;;20741301;28;20026;-62
2021/09/16 06:03:51;;;;;;;16.10;4.47;;;21.30;63.60;;;;;;20740121;28;20065;-61
2021/09/16 06:13:54;;;;;;;17.83;4.03;;;21.20;62.70;;;;;;20739290;28;20032;-59
2021/09/16 06:23:55;;;;;;;16.02;4.28;;;21.30;62.70;;;;;;20736849;28;20523;-60
2021/09/16 06:33:55;;;;;;;8.40;3.20;;;21.30;62.20;;;;;;20734129;28;20058;-59
2021/09/16 06:43:56;;;;;;;10.25;3.55;;;21.30;61.50;;;;;;20733714;28;20040;-60
2021/09/16 06:53:56;;;;;;;11.23;3.25;;;21.30;61.60;;;;;;20734146;28;20372;-61
2021/09/16 07:03:57;;;;;;;12.70;3.30;;;21.40;61.20;;;;;;20733815;28;20056;-61
2021/09/16 07:13:57;;;;;;;8.63;3.08;;;21.40;61.00;;;;;;20734789;28;20037;-61
2021/09/16 07:23:58;;;;;;;9.70;2.72;;;21.50;60.90;;;;;;20730427;28;20080;-60
2021/09/16 07:33:59;;;;;;;7.47;2.17;;;21.60;60.40;;;;;;20736992;28;20038;-61
2021/09/16 07:43:59;;;;;;;6.55;2.33;;;21.60;61.00;;;;;;20746544;28;20030;-61
2021/09/16 07:54:00;;;;;;;7.97;2.65;;;21.70;60.10;;;;;;20745792;28;20431;-61
2021/09/16 08:04:01;;;;;;;7.60;2.53;;;21.70;59.80;;;;;;20745525;28;20030;-61
2021/09/16 08:14:02;;;;;;;8.85;2.42;;;21.70;59.40;;;;;;20744898;28;20029;-61
2021/09/16 08:24:03;;;;;;;5.72;1.90;;;21.70;60.00;;;;;;20743584;28;20038;-60
2021/09/16 08:34:04;;;;;;;2.88;1.10;;;21.70;59.20;;;;;;20744316;28;20037;-61
2021/09/16 08:44:05;;;;;;;5.75;2.20;;;21.70;59.00;;;;;;20742839;28;20393;-61
2021/09/16 08:54:08;;;;;;;4.68;1.90;;;21.70;58.90;;;;;;20744066;28;20056;-60
2021/09/16 09:04:09;;;;;;;5.57;1.30;;;21.70;58.70;;;;;;20742474;28;20018;-60
2021/09/16 09:14:20;;;;;;;6.40;1.50;;;21.70;59.10;;;;;;20741290;28;20056;-60
2021/09/16 09:24:31;;;;;;;4.97;1.50;;;21.80;58.70;;;;;;20740525;28;20037;-60
2021/09/16 09:34:34;;;;;;;3.63;1.35;;;21.70;58.40;;;;;;20737633;28;20400;-60
2021/09/16 09:44:35;;;;;;;4.25;1.38;;;21.80;58.50;;;;;;20735552;28;20049;-61
2021/09/16 09:54:40;;;;;;;2.97;1.20;;;21.80;58.40;;;;;;20736297;28;20445;-61
2021/09/16 10:04:43;;;;;;;2.35;1.02;;;21.80;58.20;;;;;;20734783;28;20057;-61
2021/09/16 10:14:43;;;;;;;5.10;1.65;;;21.80;58.30;;;;;;20735713;28;20030;-61
2021/09/16 10:24:45;;;;;;;2.17;1.23;;;21.90;58.20;;;;;;20736209;28;20619;-61
2021/09/16 10:34:48;;;;;;;3.33;1.20;;;21.90;58.10;;;;;;20733382;28;20557;-60
2021/09/16 10:45:07;;;;;;;1.88;0.80;;;21.90;57.70;;;;;;20731188;28;20366;-59
2021/09/16 10:55:08;;;;;;;2.63;0.90;;;22.00;57.80;;;;;;20733070;28;20560;-61
2021/09/16 11:05:12;;;;;;;3.67;0.73;;;22.00;57.90;;;;;;20731625;28;20499;-61
2021/09/16 11:15:35;;;;;;;1.77;0.93;;;22.00;58.60;;;;;;20746337;28;20696;-61
2021/09/16 11:25:41;;;;;;;2.42;0.98;;;22.00;58.10;;;;;;20746796;28;20079;-61
2021/09/16 11:35:42;;;;;;;3.15;0.90;;;22.00;57.90;;;;;;20746077;28;20026;-61
2021/09/16 11:45:49;;;;;;;5.03;0.70;;;22.00;58.40;;;;;;20744661;28;20540;-61
2021/09/16 11:55:51;;;;;;;3.03;0.57;;;22.00;57.50;;;;;;20744509;28;20485;-61
2021/09/16 12:05:59;;;;;;;2.30;0.98;;;22.00;57.70;;;;;;20744003;28;20492;-62
2021/09/16 12:16:05;;;;;;;2.47;0.95;;;22.00;58.10;;;;;;20743207;28;20113;-62
2021/09/16 12:26:08;;;;;;;3.10;0.73;;;22.00;57.20;;;;;;20741840;28;20084;-61
2021/09/16 12:36:15;;;;;;;1.98;0.93;;;22.00;57.70;;;;;;20741024;28;20057;-61
2021/09/16 12:46:19;;;;;;;3.17;0.80;;;22.00;57.50;;;;;;20740365;28;20550;-61
2021/09/16 12:56:19;;;;;;;2.08;0.80;;;22.00;57.80;;;;;;20741904;28;20037;-61
2021/09/16 13:06:20;;;;;;;3.35;1.08;;;22.00;57.90;;;;;;20742616;28;20030;-60
2021/09/16 13:16:20;;;;;;;2.35;0.68;;;22.00;57.90;;;;;;20742777;28;20488;-58
2021/09/16 13:26:21;;;;;;;3.20;0.80;;;21.90;57.70;;;;;;20738527;28;20484;-58
2021/09/16 13:36:21;;;;;;;6.75;0.88;;;21.90;57.30;;;;;;20737079;28;20160;-59
2021/09/16 13:46:22;;;;;;;4.35;1.23;;;22.00;57.50;;;;;;20737608;28;20481;-59
2021/09/16 13:56:22;;;;;;;3.42;0.88;;;21.90;57.70;;;;;;20737091;28;20030;-61
2021/09/16 14:06:23;;;;;;;6.38;0.80;;;21.90;57.60;;;;;;20736325;28;20033;-56
2021/09/16 14:16:23;;;;;;;7.30;2.17;;;22.00;57.30;;;;;;20738165;28;20030;-60
2021/09/16 14:26:24;;;;;;;9.65;1.35;;;22.00;57.00;;;;;;20738456;28;20476;-57
2021/09/16 14:36:25;;;;;;;7.40;1.65;;;21.90;57.80;;;;;;20739021;28;20034;-60
2021/09/16 14:46:25;;;;;;;9.85;1.50;;;21.90;57.90;;;;;;20748343;28;20113;-55
2021/09/16 14:56:26;;;;;;;13.27;2.03;;;21.90;57.60;;;;;;20755241;28;20494;-59
2021/09/16 15:06:26;;;;;;;17.05;3.55;;;22.00;57.80;;;;;;20752891;28;20052;-57
2021/09/16 15:16:27;;;;;;;8.10;1.60;;;22.00;57.70;;;;;;20749000;28;20278;-58
2021/09/16 15:26:27;;;;;;;11.57;2.47;;;21.90;57.60;;;;;;20749741;28;20057;-57
2021/09/16 15:36:28;;;;;;;8.80;1.75;;;22.00;57.30;;;;;;20749783;28;20400;-59
2021/09/16 15:46:29;;;;;;;8.93;1.30;;;21.90;57.20;;;;;;20750704;28;20034;-60
2021/09/16 15:56:29;;;;;;;14.63;1.70;;;21.90;57.20;;;;;;20745729;28;20451;-60
2021/09/16 16:06:30;;;;;;;11.70;2.17;;;21.90;57.10;;;;;;20746964;28;20109;-60
2021/09/16 16:16:31;;;;;;;29.00;2.03;;;22.10;55.50;;;;;;20746181;28;20831;-60
2021/09/16 16:26:32;;;;;;;4.70;1.58;;;21.90;57.20;;;;;;20745506;28;20034;-60
2021/09/16 16:36:33;;;;;;;10.05;1.10;;;21.80;57.30;;;;;;20682451;28;20122;-59
2021/09/16 16:46:33;;;;;;;7.63;2.10;;;21.70;57.90;;;;;;20741768;28;20117;-57
2021/09/16 16:56:34;;;;;;;8.48;1.55;;;22.00;56.90;;;;;;20743283;28;20108;-59
2021/09/16 17:06:34;;;;;;;5.33;1.90;;;22.00;56.50;;;;;;20741321;28;20018;-55
2021/09/16 17:16:35;;;;;;;6.00;1.42;;;22.00;55.90;;;;;;20743977;28;20492;-57
2021/09/16 17:26:36;;;;;;;6.25;1.23;;;22.00;55.50;;;;;;20738920;28;20034;-58
2021/09/16 17:36:36;;;;;;;3.50;1.23;;;22.00;55.40;;;;;;20741790;28;20026;-60
2021/09/16 17:46:37;;;;;;;4.28;0.93;;;22.00;55.00;;;;;;20740413;28;20082;-59
2021/09/16 17:56:37;;;;;;;4.13;1.08;;;22.00;55.00;;;;;;20716488;28;20117;-58
2021/09/16 18:06:38;;;;;;;3.13;1.40;;;22.00;56.10;;;;;;20722417;28;20406;-59
2021/09/16 18:16:39;;;;;;;4.05;1.25;;;21.80;56.50;;;;;;20728378;28;21056;-60
2021/09/16 18:26:39;;;;;;;5.05;0.80;;;21.70;56.80;;;;;;20736724;28;20460;-59
2021/09/16 18:36:41;;;;;;;7.13;1.58;;;21.70;58.10;;;;;;20737270;28;20058;-56
2021/09/16 18:46:42;;;;;;;6.18;1.33;;;21.60;58.10;;;;;;20734671;28;20530;-59
2021/09/16 18:56:42;;;;;;;7.20;1.65;;;21.60;60.60;;;;;;20734098;28;20026;-61
2021/09/16 19:06:43;;;;;;;10.30;1.75;;;21.60;61.20;;;;;;20732257;28;20022;-60
2021/09/16 19:16:44;;;;;;;18.25;3.35;;;21.60;61.20;;;;;;20734330;28;20072;-60
2021/09/16 19:26:44;;;;;;;9.73;1.20;;;21.60;61.30;;;;;;20733426;28;20026;-58
2021/09/16 19:36:48;;;;;;;4.53;1.10;;;21.60;61.40;;;;;;20747690;28;20193;-58
2021/09/16 19:46:49;;;;;;;6.07;1.23;;;21.50;61.50;;;;;;20747475;28;20022;-59
2021/09/16 19:56:49;;;;;;;5.20;1.13;;;21.50;61.60;;;;;;20746779;28;20028;-60
2021/09/16 20:06:50;;;;;;;6.38;1.30;;;21.50;61.80;;;;;;20746367;28;20476;-60
2021/09/16 20:16:51;;;;;;;2.55;0.70;;;21.50;61.90;;;;;;20746329;28;20677;-61
2021/09/16 20:26:51;;;;;;;6.10;1.33;;;21.50;62.00;;;;;;20746202;28;20374;-58
2021/09/16 20:36:53;;;;;;;5.67;1.03;;;21.40;62.10;;;;;;20740952;28;20026;-60
2021/09/16 20:46:54;;;;;;;5.97;1.13;;;21.50;62.30;;;;;;20738690;28;20475;-58
2021/09/16 20:56:55;;;;;;;5.18;1.08;;;21.40;62.30;;;;;;20738137;28;20109;-59
2021/09/16 21:06:56;;;;;;;5.03;1.02;;;21.40;62.40;;;;;;20739297;28;20029;-60
2021/09/16 21:16:56;;;;;;;4.60;1.00;;;21.40;61.90;;;;;;20708002;28;20034;-61
2021/09/16 21:26:57;;;;;;;2.22;0.70;;;21.40;62.00;;;;;;20739814;28;20041;-60
2021/09/16 21:36:58;;;;;;;10.18;1.60;;;21.30;61.90;;;;;;20732758;28;20034;-59
2021/09/16 21:46:59;;;;;;;10.38;1.55;;;21.30;62.50;;;;;;20737371;28;20030;-59
2021/09/16 21:56:59;;;;;;;5.93;1.42;;;21.30;63.10;;;;;;20733829;28;20034;-60
2021/09/16 22:07:00;;;;;;;11.52;1.95;;;21.30;63.10;;;;;;20738546;28;20064;-59
2021/09/16 22:17:00;;;;;;;6.72;1.33;;;21.20;63.00;;;;;;20738569;28;20092;-57
2021/09/16 22:27:01;;;;;;;7.25;1.40;;;21.20;62.50;;;;;;20737416;28;20444;-58
2021/09/16 22:37:02;;;;;;;11.40;1.65;;;21.30;63.30;;;;;;20737486;28;20034;-56
2021/09/16 22:47:02;;;;;;;8.30;1.83;;;21.20;62.90;;;;;;20737081;28;20056;-58
2021/09/16 22:57:03;;;;;;;6.40;1.60;;;21.10;62.90;;;;;;20737136;28;20034;-58
2021/09/16 23:07:04;;;;;;;2.65;0.98;;;21.10;63.00;;;;;;20746266;28;20366;-59
2021/09/16 23:17:04;;;;;;;4.67;1.50;;;21.10;63.00;;;;;;20751113;28;20053;-57
2021/09/16 23:27:05;;;;;;;5.35;1.45;;;21.10;63.10;;;;;;20750308;28;20055;-59
2021/09/16 23:37:06;;;;;;;7.85;1.45;;;21.10;63.10;;;;;;20749639;28;20026;-59
2021/09/16 23:47:06;;;;;;;6.30;1.23;;;21.10;63.20;;;;;;20749391;28;20396;-59
2021/09/16 23:57:07;;;;;;;4.03;0.93;;;21.10;63.70;;;;;;20748154;28;20141;-59
